Time;durP1;ratioP1;P1;durP2;ratioP2;P2;SDS_P1;SDS_P2;PMS_P1;PMS_P2;Temp;Humidity;BMP_temperature;BMP_pressure;BME280_temperature;BME280_humidity;BME280_pressure;Samples;Min_cycle;Max_cycle;Signal;HPM_P1;HPM_P2
2023/06/26 00:01:57;;;;;;;7.65;7.10;;;17.40;99.90;;;;;;5185178;28;20453;-71
2023/06/26 00:04:28;;;;;;;7.47;6.78;;;17.40;99.90;;;;;;5185464;28;20034;-72
2023/06/26 00:06:59;;;;;;;9.23;6.70;;;17.40;99.90;;;;;;5185502;28;20022;-72
2023/06/26 00:09:30;;;;;;;7.53;6.93;;;17.40;99.90;;;;;;5185442;28;20512;-72
2023/06/26 00:12:01;;;;;;;7.85;7.15;;;17.50;99.90;;;;;;5185271;28;20049;-72
2023/06/26 00:14:32;;;;;;;7.70;7.05;;;17.50;99.90;;;;;;5185045;28;20049;-71
2023/06/26 00:17:03;;;;;;;7.53;6.93;;;17.60;99.90;;;;;;5185352;28;20374;-72
2023/06/26 00:19:34;;;;;;;6.75;6.25;;;17.60;99.90;;;;;;5185292;28;20026;-72
2023/06/26 00:22:05;;;;;;;7.60;5.93;;;17.40;99.90;;;;;;5185333;28;20415;-72
2023/06/26 00:24:36;;;;;;;6.72;6.13;;;17.50;99.90;;;;;;5185275;28;20117;-72
2023/06/26 00:27:07;;;;;;;7.35;6.05;;;17.50;99.90;;;;;;5185301;28;20089;-72
2023/06/26 00:29:38;;;;;;;6.28;5.70;;;17.60;99.90;;;;;;5185176;28;20033;-72
2023/06/26 00:32:09;;;;;;;6.68;5.95;;;17.50;99.90;;;;;;5185246;28;20605;-72
2023/06/26 00:34:40;;;;;;;5.32;4.88;;;17.40;99.90;;;;;;5185032;28;20237;-71
2023/06/26 00:37:11;;;;;;;5.65;5.18;;;17.30;99.90;;;;;;5185079;28;20029;-71
2023/06/26 00:39:42;;;;;;;6.10;5.60;;;17.40;99.90;;;;;;5184970;28;20018;-71
2023/06/26 00:42:12;;;;;;;6.65;5.20;;;17.40;99.90;;;;;;5183660;28;20491;-72
2023/06/26 00:44:43;;;;;;;6.82;6.03;;;17.60;99.90;;;;;;5185039;28;20026;-71
2023/06/26 00:47:17;;;;;;;7.32;6.72;;;17.50;99.90;;;;;;5185048;28;20030;-72
2023/06/26 00:49:48;;;;;;;7.82;7.22;;;17.60;99.90;;;;;;5184981;28;20014;-71
2023/06/26 00:52:19;;;;;;;7.57;6.95;;;17.40;99.90;;;;;;5184902;28;20081;-72
2023/06/26 00:54:51;;;;;;;6.10;5.60;;;17.40;99.90;;;;;;5184638;28;20033;-72
2023/06/26 00:57:22;;;;;;;5.40;4.90;;;17.30;99.90;;;;;;5184888;28;20033;-72
2023/06/26 00:59:53;;;;;;;6.30;5.70;;;17.40;99.90;;;;;;5184837;28;20462;-72
2023/06/26 01:02:24;;;;;;;7.28;6.50;;;17.40;99.90;;;;;;5184761;28;20042;-72
2023/06/26 01:04:55;;;;;;;6.03;5.53;;;17.40;99.90;;;;;;5184829;28;20382;-72
2023/06/26 01:07:26;;;;;;;5.68;5.28;;;17.30;99.90;;;;;;5185024;28;20037;-72
2023/06/26 01:09:57;;;;;;;6.07;5.57;;;17.40;99.90;;;;;;5185219;28;20029;-72
2023/06/26 01:12:28;;;;;;;7.03;6.45;;;17.40;99.90;;;;;;5184658;28;20117;-72
2023/06/26 01:15:00;;;;;;;6.97;6.38;;;17.40;99.90;;;;;;5188366;28;20156;-71
2023/06/26 01:17:32;;;;;;;6.20;5.70;;;17.20;99.90;;;;;;5188580;28;20052;-72
2023/06/26 01:20:09;;;;;;;6.38;5.88;;;17.30;99.90;;;;;;5188620;28;20388;-72
2023/06/26 01:23:26;;;;;;;6.97;6.30;;;17.50;99.90;;;;;;5188415;28;20109;-72
2023/06/26 01:26:20;;;;;;;8.40;5.68;;;17.50;99.90;;;;;;5188246;28;20041;-72
2023/06/26 01:28:53;;;;;;;5.90;5.35;;;17.40;99.90;;;;;;5187303;28;20029;-72
2023/06/26 01:31:26;;;;;;;6.00;5.50;;;17.30;99.90;;;;;;5188228;28;20112;-71
2023/06/26 01:33:59;;;;;;;6.90;6.30;;;17.20;99.90;;;;;;5187949;28;20069;-71
2023/06/26 01:36:30;;;;;;;7.43;6.82;;;17.10;99.90;;;;;;5188035;28;20482;-71
2023/06/26 01:39:00;;;;;;;5.90;5.40;;;17.20;99.90;;;;;;5188036;28;20038;-71
2023/06/26 01:41:31;;;;;;;6.60;5.90;;;17.30;99.90;;;;;;5187908;28;20046;-71
2023/06/26 01:44:28;;;;;;;7.32;6.60;;;17.40;99.90;;;;;;5187740;28;20038;-71
2023/06/26 01:47:02;;;;;;;7.22;6.53;;;17.40;99.90;;;;;;5187887;28;20034;-71
2023/06/26 01:49:52;;;;;;;5.68;5.18;;;17.20;99.90;;;;;;5187863;28;20117;-72
2023/06/26 01:52:46;;;;;;;6.45;5.85;;;17.20;99.90;;;;;;5187654;28;20401;-72
2023/06/26 01:55:33;;;;;;;7.18;6.60;;;17.20;99.90;;;;;;5187523;28;20026;-71
2023/06/26 01:58:04;;;;;;;6.43;5.90;;;17.10;99.90;;;;;;5187476;28;20038;-71
2023/06/26 02:00:36;;;;;;;7.20;6.60;;;17.10;99.90;;;;;;5187621;28;20022;-72
2023/06/26 02:03:07;;;;;;;6.63;6.15;;;17.20;99.90;;;;;;5187451;28;20032;-72
2023/06/26 02:05:38;;;;;;;6.63;6.03;;;17.30;99.90;;;;;;5187341;28;20026;-72
2023/06/26 02:08:09;;;;;;;7.72;7.03;;;17.30;99.90;;;;;;5187340;28;20072;-72
2023/06/26 02:10:40;;;;;;;7.22;6.63;;;17.20;99.90;;;;;;5187219;28;20053;-72
2023/06/26 02:13:11;;;;;;;7.95;7.35;;;17.10;99.90;;;;;;5187061;28;20066;-72
2023/06/26 02:15:42;;;;;;;8.20;7.50;;;17.00;99.90;;;;;;5187420;28;20030;-71
2023/06/26 02:18:13;;;;;;;7.75;6.85;;;17.00;99.90;;;;;;5187366;28;20101;-72
2023/06/26 02:20:44;;;;;;;7.20;6.70;;;17.20;99.90;;;;;;5187247;28;20034;-72
2023/06/26 02:23:15;;;;;;;7.95;7.20;;;17.20;99.90;;;;;;5187079;28;20025;-72
2023/06/26 02:25:46;;;;;;;9.02;8.38;;;17.00;99.90;;;;;;5187398;28;20021;-72
2023/06/26 02:28:16;;;;;;;8.80;8.10;;;16.80;99.90;;;;;;5187234;28;20022;-72
2023/06/26 02:30:47;;;;;;;9.80;8.90;;;16.90;99.90;;;;;;5187129;28;20076;-71
2023/06/26 02:33:18;;;;;;;9.68;8.98;;;16.90;99.90;;;;;;5186890;28;20034;-72
2023/06/26 02:35:50;;;;;;;9.00;8.30;;;17.00;99.90;;;;;;5186924;28;20049;-72
2023/06/26 02:38:21;;;;;;;8.30;7.63;;;16.90;99.90;;;;;;5186848;28;20470;-72
2023/06/26 02:40:51;;;;;;;6.50;6.00;;;16.70;99.90;;;;;;5186679;28;20026;-72
2023/06/26 02:43:22;;;;;;;7.50;6.90;;;16.90;99.90;;;;;;5186707;28;20547;-72
2023/06/26 02:45:53;;;;;;;8.60;8.00;;;16.90;99.90;;;;;;5186735;28;20513;-72
2023/06/26 02:48:24;;;;;;;8.43;7.82;;;17.00;99.90;;;;;;5186711;28;20119;-72
2023/06/26 02:50:55;;;;;;;7.22;6.57;;;17.20;99.90;;;;;;5186718;28;20462;-72
2023/06/26 02:53:26;;;;;;;6.88;6.38;;;17.20;99.90;;;;;;5186449;28;20034;-72
2023/06/26 02:55:57;;;;;;;6.25;5.75;;;17.00;99.90;;;;;;5186574;28;20485;-72
2023/06/26 02:58:27;;;;;;;6.30;5.80;;;16.90;99.90;;;;;;5186460;28;20445;-71
2023/06/26 03:00:58;;;;;;;7.43;6.93;;;17.00;99.90;;;;;;5186380;28;20493;-72
2023/06/26 03:03:29;;;;;;;8.80;8.02;;;17.00;99.90;;;;;;5186348;28;20478;-72
2023/06/26 03:06:00;;;;;;;10.55;9.65;;;16.80;99.90;;;;;;5186495;28;20108;-72
2023/06/26 03:08:31;;;;;;;9.23;8.63;;;16.90;99.90;;;;;;5186279;28;20113;-72
2023/06/26 03:11:02;;;;;;;10.15;9.35;;;17.00;99.90;;;;;;5186046;28;20473;-72
2023/06/26 03:13:35;;;;;;;8.90;8.40;;;17.00;99.90;;;;;;5185836;28;20057;-72
2023/06/26 03:16:06;;;;;;;8.57;7.78;;;17.10;99.90;;;;;;5186107;28;20028;-71
2023/06/26 03:18:36;;;;;;;8.10;7.40;;;17.30;99.90;;;;;;5186072;28;20034;-71
2023/06/26 03:21:09;;;;;;;7.72;7.15;;;17.30;99.90;;;;;;5185965;28;20018;-72
2023/06/26 03:23:39;;;;;;;6.70;6.10;;;17.20;99.90;;;;;;5185963;28;20107;-72
2023/06/26 03:26:10;;;;;;;7.82;7.22;;;17.30;99.90;;;;;;5185967;28;20018;-72
2023/06/26 03:28:42;;;;;;;7.18;6.57;;;17.30;99.90;;;;;;5185882;28;20038;-72
2023/06/26 03:31:13;;;;;;;5.80;5.35;;;17.00;99.90;;;;;;5185862;28;20049;-71
2023/06/26 03:33:44;;;;;;;5.93;5.45;;;17.20;99.90;;;;;;5185804;28;20802;-72
2023/06/26 03:36:15;;;;;;;6.28;5.68;;;17.30;99.90;;;;;;5185380;28;20112;-71
2023/06/26 03:38:46;;;;;;;6.43;5.93;;;17.50;99.90;;;;;;5186057;28;20014;-72
2023/06/26 03:41:17;;;;;;;7.18;6.47;;;17.60;99.90;;;;;;5185828;28;20026;-72
2023/06/26 03:43:48;;;;;;;7.30;6.70;;;17.60;99.90;;;;;;5185678;28;20087;-71
2023/06/26 03:46:19;;;;;;;6.85;6.25;;;17.50;99.90;;;;;;5185777;28;20108;-72
2023/06/26 03:48:50;;;;;;;6.25;5.75;;;17.80;99.90;;;;;;5185699;28;20109;-73
2023/06/26 03:51:21;;;;;;;7.07;6.45;;;17.70;99.90;;;;;;5185761;28;20108;-71
2023/06/26 03:53:52;;;;;;;6.95;6.35;;;17.80;99.90;;;;;;5185399;28;20034;-72
2023/06/26 03:56:22;;;;;;;7.43;6.70;;;18.50;99.90;;;;;;5185520;28;20459;-71
2023/06/26 03:58:53;;;;;;;8.73;7.90;;;18.00;99.90;;;;;;5185531;28;20022;-72
2023/06/26 04:01:24;;;;;;;8.13;7.38;;;18.10;99.90;;;;;;5185408;28;20042;-72
2023/06/26 04:03:55;;;;;;;9.48;8.77;;;18.00;99.90;;;;;;5185534;28;20048;-72
2023/06/26 04:06:27;;;;;;;9.18;8.27;;;18.20;99.90;;;;;;5185275;28;20045;-72
2023/06/26 04:08:58;;;;;;;9.45;8.40;;;18.20;99.90;;;;;;5185417;28;20024;-71
2023/06/26 04:11:29;;;;;;;9.70;9.00;;;18.30;99.90;;;;;;5185250;28;20040;-71
2023/06/26 04:14:00;;;;;;;9.13;8.27;;;18.40;99.90;;;;;;5184927;28;20145;-71
2023/06/26 04:16:31;;;;;;;10.65;8.75;;;18.50;99.90;;;;;;5184160;28;20478;-72
2023/06/26 04:19:02;;;;;;;9.43;8.57;;;18.70;99.90;;;;;;5185209;28;20038;-72
2023/06/26 04:21:33;;;;;;;10.90;10.07;;;18.70;99.90;;;;;;5185247;28;20088;-72
2023/06/26 04:24:04;;;;;;;13.32;12.43;;;18.80;99.90;;;;;;5185260;28;20037;-72
2023/06/26 04:26:35;;;;;;;12.65;11.65;;;18.90;99.90;;;;;;5185206;28;20042;-72
2023/06/26 04:29:06;;;;;;;11.07;10.27;;;18.80;99.90;;;;;;5185229;28;20469;-72
2023/06/26 04:31:38;;;;;;;11.90;11.10;;;18.80;99.90;;;;;;5185171;28;20015;-72
2023/06/26 04:34:09;;;;;;;12.40;11.52;;;18.90;99.90;;;;;;5185011;28;20539;-72
2023/06/26 04:36:39;;;;;;;15.70;14.60;;;19.00;99.90;;;;;;5185350;28;20026;-72
2023/06/26 04:39:11;;;;;;;14.70;13.60;;;19.10;99.90;;;;;;5185317;28;20029;-72
2023/06/26 04:41:44;;;;;;;16.30;15.10;;;19.00;99.90;;;;;;5184923;28;20046;-72
2023/06/26 04:44:15;;;;;;;17.48;16.23;;;19.00;99.90;;;;;;5184971;28;20038;-72
2023/06/26 04:46:46;;;;;;;15.07;13.88;;;19.20;99.90;;;;;;5186661;28;20030;-72
2023/06/26 04:49:17;;;;;;;13.93;12.93;;;19.30;99.90;;;;;;5189262;28;20409;-72
2023/06/26 04:51:48;;;;;;;14.98;13.98;;;19.50;99.90;;;;;;5189388;28;20026;-72
2023/06/26 04:54:19;;;;;;;15.45;14.20;;;19.80;99.90;;;;;;5188959;28;20034;-71
2023/06/26 04:56:50;;;;;;;13.50;12.55;;;19.90;99.90;;;;;;5188992;28;20528;-72
2023/06/26 04:59:21;;;;;;;10.88;10.07;;;20.00;99.90;;;;;;5188837;28;20034;-72
2023/06/26 05:01:51;;;;;;;10.05;9.23;;;20.00;99.90;;;;;;5188855;28;20022;-72
2023/06/26 05:04:22;;;;;;;8.93;8.13;;;20.30;99.90;;;;;;5188696;28;20136;-72
2023/06/26 05:06:53;;;;;;;9.65;8.63;;;20.50;99.90;;;;;;5188819;28;20029;-72
2023/06/26 05:09:24;;;;;;;9.85;8.95;;;20.70;99.90;;;;;;5188667;28;20030;-72
2023/06/26 05:11:55;;;;;;;10.32;9.43;;;20.80;99.90;;;;;;5188439;28;20049;-72
2023/06/26 05:14:26;;;;;;;9.15;8.35;;;20.90;99.90;;;;;;5188186;28;20538;-72
2023/06/26 05:16:56;;;;;;;8.32;7.50;;;21.20;99.90;;;;;;5188616;28;20366;-72
2023/06/26 05:19:27;;;;;;;8.40;7.70;;;21.00;99.90;;;;;;5188489;28;20052;-72
2023/06/26 05:22:02;;;;;;;9.18;8.32;;;21.10;99.90;;;;;;5188365;28;20022;-72
2023/06/26 05:24:37;;;;;;;8.75;7.95;;;21.20;99.90;;;;;;5188407;28;20029;-72
2023/06/26 05:27:08;;;;;;;9.52;8.63;;;21.20;99.90;;;;;;5188262;28;20469;-72
2023/06/26 05:29:39;;;;;;;10.30;9.30;;;21.40;99.90;;;;;;5188181;28;20057;-72
2023/06/26 05:32:12;;;;;;;10.65;9.55;;;21.60;99.90;;;;;;5188190;28;20076;-71
2023/06/26 05:34:49;;;;;;;9.52;8.40;;;21.80;99.90;;;;;;5187993;28;20049;-71
2023/06/26 05:37:24;;;;;;;9.52;8.65;;;22.00;99.90;;;;;;5188222;28;20470;-71
2023/06/26 05:39:55;;;;;;;8.85;8.13;;;22.00;99.90;;;;;;5187980;28;20045;-71
2023/06/26 05:42:27;;;;;;;9.35;8.65;;;22.10;99.90;;;;;;5186547;28;20030;-71
2023/06/26 05:44:58;;;;;;;9.98;8.60;;;22.10;99.90;;;;;;5187946;28;20497;-72
2023/06/26 05:47:29;;;;;;;10.15;9.20;;;22.10;99.90;;;;;;5187826;28;20033;-71
2023/06/26 05:50:01;;;;;;;12.68;8.70;;;22.20;99.90;;;;;;5187893;28;20033;-71
2023/06/26 05:52:32;;;;;;;9.55;8.10;;;22.30;99.90;;;;;;5187761;28;20471;-70
2023/06/26 05:55:03;;;;;;;10.95;9.35;;;22.40;99.90;;;;;;5187472;28;20037;-70
2023/06/26 05:57:35;;;;;;;10.00;8.05;;;22.50;99.90;;;;;;5186254;28;20030;-71
2023/06/26 06:00:10;;;;;;;9.02;7.95;;;22.50;99.90;;;;;;5187262;28;20092;-71
2023/06/26 06:02:43;;;;;;;8.35;7.40;;;22.50;99.90;;;;;;5187509;28;20022;-71
2023/06/26 06:05:14;;;;;;;8.48;7.30;;;22.50;99.90;;;;;;5187640;28;20053;-71
2023/06/26 06:07:44;;;;;;;8.88;7.32;;;22.60;99.90;;;;;;5187608;28;20049;-71
2023/06/26 06:10:15;;;;;;;6.90;6.30;;;22.70;99.90;;;;;;5187397;28;20437;-71
2023/06/26 06:12:46;;;;;;;8.15;7.32;;;22.70;99.90;;;;;;5187487;28;20034;-72
2023/06/26 06:15:17;;;;;;;8.82;7.93;;;22.90;99.90;;;;;;5187131;28;20058;-71
2023/06/26 06:17:48;;;;;;;8.65;7.82;;;23.00;99.90;;;;;;5187495;28;20098;-71
2023/06/26 06:20:22;;;;;;;8.35;7.43;;;23.10;99.90;;;;;;5187284;28;20052;-71
2023/06/26 06:22:53;;;;;;;9.75;8.13;;;23.10;99.90;;;;;;5187170;28;20036;-71
2023/06/26 06:25:23;;;;;;;9.50;8.60;;;23.20;99.90;;;;;;5187136;28;20022;-70
2023/06/26 06:27:54;;;;;;;10.43;9.48;;;23.10;99.90;;;;;;5187123;28;20033;-71
2023/06/26 06:30:25;;;;;;;10.57;9.70;;;23.20;99.90;;;;;;5187042;28;20026;-71
2023/06/26 06:32:56;;;;;;;12.60;9.60;;;23.20;99.90;;;;;;5186933;28;20032;-71
2023/06/26 06:35:27;;;;;;;10.05;9.00;;;23.20;99.90;;;;;;5186887;28;20038;-71
2023/06/26 06:37:58;;;;;;;10.65;9.70;;;23.10;99.90;;;;;;5186910;28;20355;-71
2023/06/26 06:40:28;;;;;;;11.48;10.48;;;23.00;99.90;;;;;;5186693;28;20054;-71
2023/06/26 06:42:59;;;;;;;10.93;10.02;;;23.10;99.90;;;;;;5186573;28;20134;-71
2023/06/26 06:45:30;;;;;;;12.02;10.73;;;23.20;99.90;;;;;;5186643;28;20041;-71
2023/06/26 06:48:01;;;;;;;10.73;9.82;;;23.30;99.90;;;;;;5186652;28;20025;-71
2023/06/26 06:50:32;;;;;;;11.93;8.57;;;23.30;99.90;;;;;;5186581;28;20029;-71
2023/06/26 06:53:03;;;;;;;9.70;8.90;;;23.40;99.90;;;;;;5186353;28;20021;-71
2023/06/26 06:55:34;;;;;;;9.88;8.95;;;23.30;99.90;;;;;;5186442;28;20469;-71
2023/06/26 06:58:04;;;;;;;8.70;7.82;;;23.30;99.90;;;;;;5186342;28;20022;-71
2023/06/26 07:00:35;;;;;;;9.88;8.88;;;23.30;99.90;;;;;;5186531;28;20033;-71
2023/06/26 07:03:06;;;;;;;10.25;9.25;;;23.30;99.90;;;;;;5186315;28;20022;-71
2023/06/26 07:05:38;;;;;;;8.95;8.23;;;23.40;99.90;;;;;;5186380;28;20061;-70
2023/06/26 07:08:08;;;;;;;10.60;9.70;;;23.30;99.90;;;;;;5186311;28;20025;-71
2023/06/26 07:10:39;;;;;;;11.77;10.63;;;23.40;99.90;;;;;;5185419;28;20033;-71
2023/06/26 07:13:10;;;;;;;12.68;11.65;;;23.40;99.90;;;;;;5186100;28;20030;-71
2023/06/26 07:15:41;;;;;;;12.57;11.43;;;23.40;99.90;;;;;;5186232;28;20038;-70
2023/06/26 07:18:12;;;;;;;11.57;10.68;;;23.30;99.90;;;;;;5186356;28;20022;-70
2023/06/26 07:20:42;;;;;;;10.20;9.30;;;23.20;99.90;;;;;;5186460;28;20026;-72
2023/06/26 07:23:13;;;;;;;11.65;10.60;;;23.20;99.90;;;;;;5186186;28;20029;-71
2023/06/26 07:25:44;;;;;;;10.98;9.98;;;23.20;99.90;;;;;;5186120;28;20068;-71
2023/06/26 07:28:15;;;;;;;12.55;11.30;;;23.00;99.90;;;;;;5186095;28;20018;-70
2023/06/26 07:30:46;;;;;;;11.45;9.88;;;23.00;99.90;;;;;;5186045;28;20030;-71
2023/06/26 07:33:17;;;;;;;31.75;12.27;;;23.10;99.90;;;;;;5185918;28;20030;-71
2023/06/26 07:35:48;;;;;;;13.38;10.32;;;23.00;99.90;;;;;;5185907;28;20037;-70
2023/06/26 07:38:19;;;;;;;14.90;10.48;;;22.80;99.90;;;;;;5185883;28;20026;-71
2023/06/26 07:40:50;;;;;;;11.73;10.60;;;22.80;99.90;;;;;;5185669;28;20088;-70
2023/06/26 07:43:20;;;;;;;13.57;11.75;;;22.50;99.90;;;;;;5185537;28;20040;-72
2023/06/26 07:45:53;;;;;;;15.02;11.65;;;22.50;99.90;;;;;;5185618;28;20025;-71
2023/06/26 07:48:24;;;;;;;16.63;11.98;;;22.60;99.90;;;;;;5185767;28;20022;-71
2023/06/26 07:50:55;;;;;;;14.43;11.35;;;22.60;99.90;;;;;;5185734;28;20040;-71
2023/06/26 07:53:26;;;;;;;11.68;9.80;;;22.70;99.90;;;;;;5185524;28;20030;-71
2023/06/26 07:55:57;;;;;;;10.65;9.55;;;22.60;99.90;;;;;;5185625;28;20038;-72
2023/06/26 07:58:28;;;;;;;12.90;10.07;;;22.70;99.90;;;;;;5185603;28;20030;-71
2023/06/26 08:00:58;;;;;;;11.20;10.10;;;22.80;99.90;;;;;;5185391;28;20061;-70
2023/06/26 08:03:29;;;;;;;10.57;9.60;;;22.90;99.90;;;;;;5185286;28;20045;-71
2023/06/26 08:06:00;;;;;;;11.05;9.73;;;23.00;99.90;;;;;;5185446;28;20026;-72
2023/06/26 08:08:31;;;;;;;11.60;10.45;;;23.10;99.90;;;;;;5185481;28;20091;-72
2023/06/26 08:11:02;;;;;;;13.27;10.70;;;23.00;99.90;;;;;;5185307;28;20103;-72
2023/06/26 08:13:33;;;;;;;10.57;9.52;;;23.10;99.90;;;;;;5184930;28;20543;-71
2023/06/26 08:16:04;;;;;;;11.27;10.15;;;23.10;99.90;;;;;;5185296;28;20030;-70
2023/06/26 08:18:35;;;;;;;12.10;9.63;;;23.20;99.90;;;;;;5185459;28;20030;-72
2023/06/26 08:21:06;;;;;;;9.88;8.98;;;23.40;99.90;;;;;;5185643;28;20083;-71
2023/06/26 08:23:36;;;;;;;11.10;8.63;;;23.80;99.90;;;;;;5189395;28;20113;-71
2023/06/26 08:26:08;;;;;;;11.52;10.43;;;23.80;99.90;;;;;;5189521;28;20022;-71
2023/06/26 08:28:38;;;;;;;12.45;11.38;;;24.00;99.90;;;;;;5189419;28;20060;-72
2023/06/26 08:31:09;;;;;;;12.25;11.15;;;24.00;99.90;;;;;;5189766;28;20034;-70
2023/06/26 08:33:40;;;;;;;12.63;11.48;;;23.80;99.90;;;;;;5189390;28;20169;-70
2023/06/26 08:36:11;;;;;;;12.38;11.18;;;23.70;99.90;;;;;;5189470;28;20339;-71
2023/06/26 08:38:43;;;;;;;13.38;12.07;;;23.50;99.90;;;;;;5189219;28;20037;-71
2023/06/26 08:41:14;;;;;;;12.82;11.43;;;23.40;99.90;;;;;;5188932;28;20037;-71
2023/06/26 08:43:45;;;;;;;11.02;10.02;;;23.30;99.90;;;;;;5189073;28;20037;-71
2023/06/26 08:46:16;;;;;;;12.00;10.75;;;23.00;99.90;;;;;;5189117;28;20029;-71
2023/06/26 08:48:55;;;;;;;14.52;9.77;;;22.90;99.90;;;;;;5188986;28;20469;-72
2023/06/26 08:51:28;;;;;;;;;;;22.70;99.90;;;;;;5189532;28;20026;-71
2023/06/26 08:54:02;;;;;;;11.45;9.82;;;22.70;99.90;;;;;;5188804;28;20376;-71
2023/06/26 08:56:37;;;;;;;10.82;9.75;;;22.60;99.90;;;;;;5188873;28;20029;-71
2023/06/26 08:59:14;;;;;;;10.45;9.45;;;22.40;99.90;;;;;;5188873;28;20560;-70
2023/06/26 09:01:45;;;;;;;10.50;9.50;;;22.40;99.90;;;;;;5188846;28;20046;-71
2023/06/26 09:04:16;;;;;;;11.98;9.90;;;22.50;99.90;;;;;;5188690;28;20080;-71
2023/06/26 09:06:47;;;;;;;12.23;9.02;;;22.40;99.90;;;;;;5188731;28;20050;-71
2023/06/26 09:09:18;;;;;;;10.98;9.85;;;22.20;99.90;;;;;;5188726;28;20458;-72
2023/06/26 09:11:48;;;;;;;12.55;9.52;;;22.20;99.90;;;;;;5188480;28;20509;-71
2023/06/26 09:14:20;;;;;;;9.90;8.95;;;22.20;99.90;;;;;;5188074;28;20136;-72
2023/06/26 09:16:51;;;;;;;10.07;8.82;;;22.40;99.90;;;;;;5188408;28;20432;-70
2023/06/26 09:19:21;;;;;;;10.95;8.70;;;22.40;99.90;;;;;;5188378;28;20030;-71
2023/06/26 09:21:54;;;;;;;10.80;7.93;;;22.40;99.90;;;;;;5187100;28;20030;-71
2023/06/26 09:24:25;;;;;;;12.65;8.93;;;22.50;99.90;;;;;;5188347;28;20070;-71
2023/06/26 09:26:57;;;;;;;10.40;9.20;;;22.50;99.90;;;;;;5188209;28;20404;-71
2023/06/26 09:29:29;;;;;;;11.35;8.68;;;22.70;99.90;;;;;;5188151;28;20029;-72
2023/06/26 09:32:00;;;;;;;9.45;8.13;;;22.80;99.90;;;;;;5188129;28;20057;-71
2023/06/26 09:34:32;;;;;;;10.15;9.13;;;22.90;99.90;;;;;;5186982;28;20378;-72
2023/06/26 09:37:04;;;;;;;10.43;9.45;;;22.90;99.90;;;;;;5188261;28;20029;-71
2023/06/26 09:39:34;;;;;;;10.40;9.30;;;23.00;99.90;;;;;;5187952;28;20014;-72
2023/06/26 09:42:06;;;;;;;8.95;8.10;;;23.00;99.90;;;;;;5187977;28;20478;-71
2023/06/26 09:44:44;;;;;;;10.40;8.57;;;23.10;99.90;;;;;;5188226;28;20029;-71
2023/06/26 09:47:19;;;;;;;10.30;9.38;;;23.10;99.90;;;;;;5188136;28;20116;-71
2023/06/26 09:49:52;;;;;;;10.00;9.00;;;23.20;99.90;;;;;;5188177;28;20018;-71
2023/06/26 09:52:28;;;;;;;8.63;7.80;;;23.30;99.90;;;;;;5188039;28;20033;-71
2023/06/26 09:55:09;;;;;;;9.82;8.60;;;23.00;99.90;;;;;;5187643;28;20085;-72
2023/06/26 09:57:40;;;;;;;9.45;8.30;;;22.80;99.90;;;;;;5187680;28;20041;-72
2023/06/26 10:00:12;;;;;;;9.15;8.13;;;22.60;99.90;;;;;;5187787;28;20390;-72
2023/06/26 10:02:43;;;;;;;9.32;8.52;;;22.80;99.90;;;;;;5187657;28;20030;-70
2023/06/26 10:05:14;;;;;;;8.70;7.88;;;23.00;99.90;;;;;;5187720;28;20022;-71
2023/06/26 10:07:47;;;;;;;9.52;8.63;;;23.20;99.90;;;;;;5187504;28;20061;-71
2023/06/26 10:10:20;;;;;;;12.27;9.77;;;23.30;99.90;;;;;;5187496;28;20113;-70
2023/06/26 10:13:00;;;;;;;10.35;9.25;;;23.40;99.90;;;;;;5187187;28;20029;-72
2023/06/26 10:15:31;;;;;;;12.23;9.18;;;23.40;99.90;;;;;;5187269;28;20103;-71
2023/06/26 10:18:02;;;;;;;12.50;8.43;;;23.50;99.90;;;;;;5187254;28;20466;-71
2023/06/26 10:20:34;;;;;;;10.45;7.13;;;23.40;99.90;;;;;;5187225;28;20029;-72
2023/06/26 10:23:07;;;;;;;7.85;7.15;;;23.40;99.90;;;;;;5187185;28;20025;-71
2023/06/26 10:25:42;;;;;;;9.13;8.20;;;23.50;99.90;;;;;;5187101;28;20026;-71
2023/06/26 10:28:14;;;;;;;8.00;7.22;;;23.50;99.90;;;;;;5187192;28;20021;-72
2023/06/26 10:30:50;;;;;;;8.27;7.47;;;23.40;99.90;;;;;;5187126;28;20034;-71
2023/06/26 10:33:22;;;;;;;8.18;7.05;;;23.50;99.90;;;;;;5186876;28;20026;-71
2023/06/26 10:35:53;;;;;;;9.10;8.40;;;23.50;99.90;;;;;;5186821;28;20037;-71
2023/06/26 10:38:54;;;;;;;11.13;10.13;;;23.50;99.90;;;;;;5186948;28;20474;-71
2023/06/26 10:41:26;;;;;;;10.48;9.57;;;23.20;99.90;;;;;;5186789;28;20041;-71
2023/06/26 10:44:07;;;;;;;15.32;9.05;;;23.10;99.90;;;;;;5186469;28;20470;-71
2023/06/26 10:46:56;;;;;;;9.35;8.43;;;23.00;99.90;;;;;;5186832;28;20034;-72
2023/06/26 10:49:30;;;;;;;9.32;7.53;;;23.00;99.90;;;;;;5185383;28;20022;-72
2023/06/26 10:52:02;;;;;;;11.57;8.48;;;23.10;99.90;;;;;;5185248;28;20032;-70
2023/06/26 10:54:35;;;;;;;9.32;8.27;;;23.10;99.90;;;;;;5186527;28;20463;-72
2023/06/26 10:57:07;;;;;;;9.40;7.72;;;23.10;99.90;;;;;;5186465;28;20050;-71
2023/06/26 10:59:40;;;;;;;12.20;8.30;;;23.20;99.90;;;;;;5186592;28;20037;-71
2023/06/26 11:02:11;;;;;;;10.73;8.45;;;23.20;99.90;;;;;;5186712;28;20485;-71
2023/06/26 11:04:47;;;;;;;9.57;8.68;;;23.20;99.90;;;;;;5186283;28;20034;-71
2023/06/26 11:07:22;;;;;;;10.40;9.40;;;23.40;99.90;;;;;;5186411;28;20032;-70
2023/06/26 11:10:00;;;;;;;9.68;8.35;;;23.40;99.90;;;;;;5186120;28;20022;-71
2023/06/26 11:12:41;;;;;;;8.57;7.88;;;23.20;99.90;;;;;;5186164;28;20030;-71
2023/06/26 11:15:14;;;;;;;8.45;7.75;;;23.30;99.90;;;;;;5185948;28;20128;-72
2023/06/26 11:17:47;;;;;;;9.25;8.43;;;23.40;99.90;;;;;;5186621;28;20037;-71
2023/06/26 11:20:18;;;;;;;8.60;7.90;;;23.30;99.90;;;;;;5186293;28;20037;-70
2023/06/26 11:22:53;;;;;;;9.70;8.90;;;23.40;99.90;;;;;;5186267;28;20029;-72
2023/06/26 11:25:24;;;;;;;10.95;9.63;;;23.40;99.90;;;;;;5186111;28;20104;-70
2023/06/26 11:27:55;;;;;;;9.55;8.75;;;23.50;99.90;;;;;;5186199;28;20026;-71
2023/06/26 11:30:26;;;;;;;12.73;8.75;;;23.60;99.90;;;;;;5185990;28;20032;-71
2023/06/26 11:33:05;;;;;;;8.80;8.10;;;23.50;99.90;;;;;;5185905;28;20037;-70
2023/06/26 11:35:37;;;;;;;10.48;8.35;;;23.50;99.90;;;;;;5185877;28;20068;-70
2023/06/26 11:38:08;;;;;;;9.25;8.20;;;23.40;99.90;;;;;;5185866;28;20026;-70
2023/06/26 11:40:39;;;;;;;9.82;8.90;;;23.60;99.90;;;;;;5682088;22;20544;-72
2023/06/26 11:43:10;;;;;;;9.30;8.40;;;23.60;99.90;;;;;;5168396;28;20043;-71
2023/06/26 11:45:41;;;;;;;9.65;8.68;;;23.60;99.90;;;;;;5185723;28;20026;-70
2023/06/26 11:48:12;;;;;;;9.23;8.48;;;23.70;99.90;;;;;;5185769;28;20033;-71
2023/06/26 11:50:43;;;;;;;9.98;9.07;;;23.70;99.90;;;;;;5185674;28;20036;-71
2023/06/26 11:53:15;;;;;;;10.30;9.23;;;23.80;99.90;;;;;;5185572;28;20036;-71
2023/06/26 11:55:46;;;;;;;11.40;10.50;;;23.90;99.90;;;;;;5185087;28;20111;-71
2023/06/26 11:58:17;;;;;;;11.60;10.50;;;23.80;99.90;;;;;;5185412;28;20022;-72
2023/06/26 12:00:48;;;;;;;12.70;11.60;;;24.00;99.90;;;;;;5185486;28;20025;-71
2023/06/26 12:03:19;;;;;;;13.20;12.00;;;24.00;99.90;;;;;;5185529;28;20022;-70
2023/06/26 12:05:52;;;;;;;12.13;11.32;;;24.00;99.90;;;;;;5185506;28;20034;-71
2023/06/26 12:08:23;;;;;;;13.30;12.18;;;23.90;99.90;;;;;;5185346;28;20053;-71
2023/06/26 12:10:54;;;;;;;11.57;10.50;;;24.00;99.90;;;;;;5185102;28;20112;-70
2023/06/26 12:13:25;;;;;;;10.13;9.15;;;23.80;99.90;;;;;;5185130;28;20113;-70
2023/06/26 12:15:57;;;;;;;8.98;8.02;;;23.90;99.90;;;;;;5185295;28;20026;-71
2023/06/26 12:18:36;;;;;;;8.98;8.10;;;24.10;99.90;;;;;;5185223;28;20061;-72
2023/06/26 12:21:08;;;;;;;9.85;8.88;;;24.10;99.90;;;;;;5185284;28;20029;-72
2023/06/26 12:23:41;;;;;;;9.80;8.90;;;24.00;99.90;;;;;;5167513;28;20568;-72
2023/06/26 12:26:20;;;;;;;9.45;8.65;;;24.20;99.90;;;;;;5185142;28;20033;-71
2023/06/26 12:28:51;;;;;;;8.98;8.18;;;24.10;99.90;;;;;;5185163;28;20092;-70
2023/06/26 12:31:22;;;;;;;10.48;9.65;;;24.10;99.90;;;;;;5185085;28;20026;-70
2023/06/26 12:33:53;;;;;;;11.43;8.27;;;24.30;99.90;;;;;;5167596;28;20118;-71
2023/06/26 12:36:24;;;;;;;11.50;10.45;;;24.30;99.90;;;;;;5185519;28;20025;-72
2023/06/26 12:38:55;;;;;;;10.00;9.20;;;24.10;99.90;;;;;;5167622;28;20589;-71
2023/06/26 12:41:25;;;;;;;10.27;9.38;;;24.20;99.90;;;;;;5184651;28;20068;-71
2023/06/26 12:43:56;;;;;;;11.27;9.27;;;24.30;99.90;;;;;;5185262;28;20105;-71
2023/06/26 12:46:37;;;;;;;10.43;9.52;;;24.20;99.90;;;;;;5185244;28;20025;-71
2023/06/26 12:49:08;;;;;;;9.05;8.35;;;24.20;99.90;;;;;;5185502;28;20028;-70
2023/06/26 12:51:40;;;;;;;8.63;7.93;;;24.30;99.90;;;;;;5185112;28;20025;-72
2023/06/26 12:54:11;;;;;;;9.85;8.95;;;24.30;99.90;;;;;;5185069;28;20034;-71
2023/06/26 12:56:41;;;;;;;10.85;9.77;;;24.30;99.90;;;;;;5185234;28;20097;-71
2023/06/26 12:59:12;;;;;;;10.43;9.63;;;24.30;99.90;;;;;;5184948;28;20386;-72
2023/06/26 13:01:43;;;;;;;9.25;8.30;;;24.10;99.90;;;;;;5184848;28;20363;-70
2023/06/26 13:04:14;;;;;;;10.30;8.85;;;24.10;99.90;;;;;;5184969;28;20025;-71
2023/06/26 13:06:46;;;;;;;11.38;10.30;;;24.10;99.90;;;;;;5184846;28;20055;-71